Indianapolis (IND/KIND)

Map

Destinations

Information

Location
Indianapolis, IN
Local Time
21:49 / 9:49 pm
GMT Time
02:49 / 2:49 am
Gates
Unassigned
No FAA reported delays
METAR KIND 170154Z 14011KT 1SM R05L/P6000FT -RA BR OVC002 10/09 A3002 RMK AO2 SFC VIS 3 RAB26 SLP167 P0000 T01000094 $
TAF KIND 170229Z 1702/1806 14011KT 3SM SHRA BR OVC003 FM170400 16007KT 2SM SHRA VCTS SCT005 BKN015CB FM170600 17009KT 3SM SHRA OVC008 WS020/20050KT FM171000 21009KT 4SM BR VCSH OVC010 FM171800 25011G20KT P6SM BKN010 FM180000 26008KT P6SM OVC008
  • No charts available